sensor_id;sensor_type;location;lat;lon;timestamp;P1;durP1;ratioP1;P2;durP2;ratioP2
25343;SDS011;13299;52.052;8.548;2022-07-04T00:00:22;2.95;;;1.15;;
25343;SDS011;13299;52.052;8.548;2022-07-04T00:02:48;2.47;;;1.00;;
25343;SDS011;13299;52.052;8.548;2022-07-04T00:05:15;3.65;;;1.10;;
25343;SDS011;13299;52.052;8.548;2022-07-04T00:07:42;3.13;;;1.15;;
25343;SDS011;13299;52.052;8.548;2022-07-04T00:10:10;2.60;;;1.30;;
25343;SDS011;13299;52.052;8.548;2022-07-04T00:12:37;4.82;;;1.67;;
25343;SDS011;13299;52.052;8.548;2022-07-04T00:15:03;3.47;;;1.30;;
25343;SDS011;13299;52.052;8.548;2022-07-04T00:17:30;2.88;;;1.40;;
25343;SDS011;13299;52.052;8.548;2022-07-04T00:19:56;4.13;;;1.90;;
25343;SDS011;13299;52.052;8.548;2022-07-04T00:22:22;2.95;;;1.42;;
25343;SDS011;13299;52.052;8.548;2022-07-04T00:24:48;3.30;;;0.95;;
25343;SDS011;13299;52.052;8.548;2022-07-04T00:27:14;2.15;;;1.00;;
25343;SDS011;13299;52.052;8.548;2022-07-04T00:29:40;0.90;;;0.73;;
25343;SDS011;13299;52.052;8.548;2022-07-04T00:32:06;2.20;;;1.15;;
25343;SDS011;13299;52.052;8.548;2022-07-04T00:34:32;3.28;;;1.40;;
25343;SDS011;13299;52.052;8.548;2022-07-04T00:36:57;2.70;;;1.20;;
25343;SDS011;13299;52.052;8.548;2022-07-04T00:39:23;2.90;;;1.40;;
25343;SDS011;13299;52.052;8.548;2022-07-04T00:41:49;4.40;;;1.25;;
25343;SDS011;13299;52.052;8.548;2022-07-04T00:44:15;2.58;;;1.30;;
25343;SDS011;13299;52.052;8.548;2022-07-04T00:46:41;5.07;;;1.48;;
25343;SDS011;13299;52.052;8.548;2022-07-04T00:49:08;2.83;;;1.27;;
25343;SDS011;13299;52.052;8.548;2022-07-04T00:51:34;2.05;;;1.30;;
25343;SDS011;13299;52.052;8.548;2022-07-04T00:54:02;2.78;;;1.40;;
25343;SDS011;13299;52.052;8.548;2022-07-04T00:56:29;1.95;;;1.20;;
25343;SDS011;13299;52.052;8.548;2022-07-04T00:58:55;3.47;;;1.67;;
25343;SDS011;13299;52.052;8.548;2022-07-04T01:01:21;2.42;;;1.40;;
25343;SDS011;13299;52.052;8.548;2022-07-04T01:03:47;3.42;;;1.38;;
25343;SDS011;13299;52.052;8.548;2022-07-04T01:06:14;5.03;;;1.48;;
25343;SDS011;13299;52.052;8.548;2022-07-04T01:08:41;2.17;;;1.25;;
25343;SDS011;13299;52.052;8.548;2022-07-04T01:11:08;1.90;;;1.25;;
25343;SDS011;13299;52.052;8.548;2022-07-04T01:13:34;4.63;;;1.38;;
25343;SDS011;13299;52.052;8.548;2022-07-04T01:16:01;3.95;;;1.25;;
25343;SDS011;13299;52.052;8.548;2022-07-04T01:18:27;3.17;;;1.50;;
25343;SDS011;13299;52.052;8.548;2022-07-04T01:20:53;2.90;;;1.48;;
25343;SDS011;13299;52.052;8.548;2022-07-04T01:23:19;1.50;;;1.10;;
25343;SDS011;13299;52.052;8.548;2022-07-04T01:25:44;4.45;;;1.83;;
25343;SDS011;13299;52.052;8.548;2022-07-04T01:28:10;2.85;;;1.38;;
25343;SDS011;13299;52.052;8.548;2022-07-04T01:30:36;3.55;;;1.50;;
25343;SDS011;13299;52.052;8.548;2022-07-04T01:33:03;2.58;;;1.30;;
25343;SDS011;13299;52.052;8.548;2022-07-04T01:35:29;1.77;;;1.40;;
25343;SDS011;13299;52.052;8.548;2022-07-04T01:37:55;4.03;;;1.30;;
25343;SDS011;13299;52.052;8.548;2022-07-04T01:40:21;1.73;;;1.08;;
25343;SDS011;13299;52.052;8.548;2022-07-04T01:42:47;3.95;;;1.20;;
25343;SDS011;13299;52.052;8.548;2022-07-04T01:45:12;2.25;;;1.20;;
25343;SDS011;13299;52.052;8.548;2022-07-04T01:47:38;3.38;;;1.40;;
25343;SDS011;13299;52.052;8.548;2022-07-04T01:50:05;3.65;;;1.33;;
25343;SDS011;13299;52.052;8.548;2022-07-04T01:52:32;3.83;;;1.27;;
25343;SDS011;13299;52.052;8.548;2022-07-04T01:54:58;2.85;;;1.40;;
25343;SDS011;13299;52.052;8.548;2022-07-04T01:57:24;5.97;;;1.52;;
25343;SDS011;13299;52.052;8.548;2022-07-04T01:59:50;3.55;;;1.27;;
25343;SDS011;13299;52.052;8.548;2022-07-04T02:02:35;2.05;;;1.30;;
25343;SDS011;13299;52.052;8.548;2022-07-04T02:05:01;2.50;;;1.30;;
25343;SDS011;13299;52.052;8.548;2022-07-04T02:07:27;2.22;;;1.27;;
25343;SDS011;13299;52.052;8.548;2022-07-04T02:09:52;3.78;;;1.38;;
25343;SDS011;13299;52.052;8.548;2022-07-04T02:12:18;4.43;;;1.60;;
25343;SDS011;13299;52.052;8.548;2022-07-04T02:15:03;4.22;;;1.35;;
25343;SDS011;13299;52.052;8.548;2022-07-04T02:17:29;2.63;;;1.40;;
25343;SDS011;13299;52.052;8.548;2022-07-04T02:19:54;2.97;;;1.50;;
25343;SDS011;13299;52.052;8.548;2022-07-04T02:22:20;3.47;;;1.80;;
25343;SDS011;13299;52.052;8.548;2022-07-04T02:24:46;3.35;;;1.52;;
25343;SDS011;13299;52.052;8.548;2022-07-04T02:27:11;3.35;;;1.50;;
25343;SDS011;13299;52.052;8.548;2022-07-04T02:29:37;3.05;;;1.55;;
25343;SDS011;13299;52.052;8.548;2022-07-04T02:32:03;3.92;;;1.40;;
25343;SDS011;13299;52.052;8.548;2022-07-04T02:34:29;3.53;;;1.60;;
25343;SDS011;13299;52.052;8.548;2022-07-04T02:36:55;4.20;;;1.40;;
25343;SDS011;13299;52.052;8.548;2022-07-04T02:39:20;3.83;;;1.98;;
25343;SDS011;13299;52.052;8.548;2022-07-04T02:41:46;1.98;;;1.40;;
25343;SDS011;13299;52.052;8.548;2022-07-04T02:44:12;3.63;;;1.40;;
25343;SDS011;13299;52.052;8.548;2022-07-04T02:46:37;2.97;;;1.48;;
25343;SDS011;13299;52.052;8.548;2022-07-04T02:49:03;3.28;;;1.60;;
25343;SDS011;13299;52.052;8.548;2022-07-04T02:51:29;3.75;;;1.90;;
25343;SDS011;13299;52.052;8.548;2022-07-04T02:53:55;2.90;;;1.50;;
25343;SDS011;13299;52.052;8.548;2022-07-04T02:56:21;3.28;;;1.50;;
25343;SDS011;13299;52.052;8.548;2022-07-04T02:58:47;2.80;;;1.60;;
25343;SDS011;13299;52.052;8.548;2022-07-04T03:01:13;2.47;;;1.73;;
25343;SDS011;13299;52.052;8.548;2022-07-04T03:03:40;5.30;;;1.60;;
25343;SDS011;13299;52.052;8.548;2022-07-04T03:06:09;3.78;;;1.73;;
25343;SDS011;13299;52.052;8.548;2022-07-04T03:08:35;2.90;;;1.50;;
25343;SDS011;13299;52.052;8.548;2022-07-04T03:11:01;2.45;;;1.50;;
25343;SDS011;13299;52.052;8.548;2022-07-04T03:13:27;5.63;;;1.92;;
25343;SDS011;13299;52.052;8.548;2022-07-04T03:15:53;2.03;;;1.40;;
25343;SDS011;13299;52.052;8.548;2022-07-04T03:18:19;3.90;;;1.83;;
25343;SDS011;13299;52.052;8.548;2022-07-04T03:20:45;5.80;;;1.70;;
25343;SDS011;13299;52.052;8.548;2022-07-04T03:23:11;2.75;;;1.80;;
25343;SDS011;13299;52.052;8.548;2022-07-04T03:25:38;3.15;;;1.70;;
25343;SDS011;13299;52.052;8.548;2022-07-04T03:28:05;3.78;;;1.85;;
25343;SDS011;13299;52.052;8.548;2022-07-04T03:30:30;3.50;;;1.67;;
25343;SDS011;13299;52.052;8.548;2022-07-04T03:32:56;3.50;;;1.98;;
25343;SDS011;13299;52.052;8.548;2022-07-04T03:35:22;4.57;;;2.60;;
25343;SDS011;13299;52.052;8.548;2022-07-04T03:37:48;5.38;;;1.90;;
25343;SDS011;13299;52.052;8.548;2022-07-04T03:40:13;4.13;;;1.92;;
25343;SDS011;13299;52.052;8.548;2022-07-04T03:42:39;3.95;;;1.92;;
25343;SDS011;13299;52.052;8.548;2022-07-04T03:45:05;4.50;;;1.90;;
25343;SDS011;13299;52.052;8.548;2022-07-04T03:47:31;3.85;;;1.90;;
25343;SDS011;13299;52.052;8.548;2022-07-04T03:49:57;3.97;;;1.92;;
25343;SDS011;13299;52.052;8.548;2022-07-04T03:52:23;7.25;;;2.22;;
25343;SDS011;13299;52.052;8.548;2022-07-04T03:54:49;3.80;;;1.90;;
25343;SDS011;13299;52.052;8.548;2022-07-04T03:57:15;3.35;;;1.70;;
25343;SDS011;13299;52.052;8.548;2022-07-04T03:59:41;3.72;;;2.22;;
25343;SDS011;13299;52.052;8.548;2022-07-04T04:02:07;4.53;;;2.00;;
25343;SDS011;13299;52.052;8.548;2022-07-04T04:04:32;3.60;;;2.20;;
25343;SDS011;13299;52.052;8.548;2022-07-04T04:07:17;5.90;;;2.05;;
25343;SDS011;13299;52.052;8.548;2022-07-04T04:09:42;5.68;;;2.15;;
25343;SDS011;13299;52.052;8.548;2022-07-04T04:12:08;5.55;;;2.13;;
25343;SDS011;13299;52.052;8.548;2022-07-04T04:14:34;4.82;;;2.20;;
25343;SDS011;13299;52.052;8.548;2022-07-04T04:16:59;2.63;;;1.58;;
25343;SDS011;13299;52.052;8.548;2022-07-04T04:19:25;4.15;;;2.10;;
25343;SDS011;13299;52.052;8.548;2022-07-04T04:21:50;3.45;;;2.17;;
25343;SDS011;13299;52.052;8.548;2022-07-04T04:24:16;4.18;;;1.92;;
25343;SDS011;13299;52.052;8.548;2022-07-04T04:26:42;5.28;;;2.00;;
25343;SDS011;13299;52.052;8.548;2022-07-04T04:29:07;4.57;;;1.80;;
25343;SDS011;13299;52.052;8.548;2022-07-04T04:31:33;4.03;;;2.30;;
25343;SDS011;13299;52.052;8.548;2022-07-04T04:33:58;3.88;;;1.75;;
25343;SDS011;13299;52.052;8.548;2022-07-04T04:36:24;4.65;;;2.20;;
25343;SDS011;13299;52.052;8.548;2022-07-04T04:38:50;8.32;;;2.55;;
25343;SDS011;13299;52.052;8.548;2022-07-04T04:41:16;5.20;;;2.30;;
25343;SDS011;13299;52.052;8.548;2022-07-04T04:43:42;5.10;;;2.47;;
25343;SDS011;13299;52.052;8.548;2022-07-04T04:46:08;4.82;;;2.30;;
25343;SDS011;13299;52.052;8.548;2022-07-04T04:48:34;4.95;;;2.40;;
25343;SDS011;13299;52.052;8.548;2022-07-04T04:51:00;4.85;;;2.60;;
25343;SDS011;13299;52.052;8.548;2022-07-04T04:53:26;4.97;;;2.70;;
25343;SDS011;13299;52.052;8.548;2022-07-04T04:55:52;5.95;;;3.00;;
25343;SDS011;13299;52.052;8.548;2022-07-04T04:58:19;5.75;;;3.20;;
25343;SDS011;13299;52.052;8.548;2022-07-04T05:00:45;7.47;;;2.97;;
25343;SDS011;13299;52.052;8.548;2022-07-04T05:03:11;3.55;;;2.47;;
25343;SDS011;13299;52.052;8.548;2022-07-04T05:05:36;8.68;;;3.05;;
25343;SDS011;13299;52.052;8.548;2022-07-04T05:08:02;5.07;;;2.28;;
25343;SDS011;13299;52.052;8.548;2022-07-04T05:10:28;6.88;;;2.70;;
25343;SDS011;13299;52.052;8.548;2022-07-04T05:12:54;5.18;;;2.38;;
25343;SDS011;13299;52.052;8.548;2022-07-04T05:15:20;3.60;;;2.25;;
25343;SDS011;13299;52.052;8.548;2022-07-04T05:17:46;6.22;;;3.38;;
25343;SDS011;13299;52.052;8.548;2022-07-04T05:20:12;5.80;;;2.70;;
25343;SDS011;13299;52.052;8.548;2022-07-04T05:22:37;4.60;;;2.63;;
25343;SDS011;13299;52.052;8.548;2022-07-04T05:25:03;6.00;;;2.85;;
25343;SDS011;13299;52.052;8.548;2022-07-04T05:27:29;5.50;;;2.80;;
25343;SDS011;13299;52.052;8.548;2022-07-04T05:29:56;5.13;;;2.60;;
25343;SDS011;13299;52.052;8.548;2022-07-04T05:32:22;7.05;;;3.40;;
25343;SDS011;13299;52.052;8.548;2022-07-04T05:34:48;4.97;;;2.65;;
25343;SDS011;13299;52.052;8.548;2022-07-04T05:37:14;5.88;;;2.83;;
25343;SDS011;13299;52.052;8.548;2022-07-04T05:39:39;6.63;;;3.10;;
25343;SDS011;13299;52.052;8.548;2022-07-04T05:42:05;6.38;;;2.60;;
25343;SDS011;13299;52.052;8.548;2022-07-04T05:44:31;4.57;;;2.78;;
25343;SDS011;13299;52.052;8.548;2022-07-04T05:46:56;4.88;;;2.38;;
25343;SDS011;13299;52.052;8.548;2022-07-04T05:49:22;5.03;;;2.28;;
25343;SDS011;13299;52.052;8.548;2022-07-04T05:51:48;6.30;;;2.47;;
25343;SDS011;13299;52.052;8.548;2022-07-04T05:54:13;6.45;;;2.33;;
25343;SDS011;13299;52.052;8.548;2022-07-04T05:56:39;4.18;;;2.38;;
25343;SDS011;13299;52.052;8.548;2022-07-04T05:59:07;3.85;;;2.38;;
25343;SDS011;13299;52.052;8.548;2022-07-04T06:01:33;4.97;;;2.20;;
25343;SDS011;13299;52.052;8.548;2022-07-04T06:03:58;6.60;;;2.35;;
25343;SDS011;13299;52.052;8.548;2022-07-04T06:06:24;6.78;;;2.17;;
25343;SDS011;13299;52.052;8.548;2022-07-04T06:08:49;5.10;;;2.80;;
25343;SDS011;13299;52.052;8.548;2022-07-04T06:11:15;3.17;;;1.65;;
25343;SDS011;13299;52.052;8.548;2022-07-04T06:13:42;4.35;;;1.65;;
25343;SDS011;13299;52.052;8.548;2022-07-04T06:16:08;3.60;;;1.58;;
25343;SDS011;13299;52.052;8.548;2022-07-04T06:18:34;6.03;;;2.10;;
25343;SDS011;13299;52.052;8.548;2022-07-04T06:20:59;6.25;;;2.10;;
25343;SDS011;13299;52.052;8.548;2022-07-04T06:23:25;5.28;;;2.13;;
25343;SDS011;13299;52.052;8.548;2022-07-04T06:25:51;7.72;;;2.20;;
25343;SDS011;13299;52.052;8.548;2022-07-04T06:28:16;4.75;;;1.80;;
25343;SDS011;13299;52.052;8.548;2022-07-04T06:30:42;4.28;;;1.80;;
25343;SDS011;13299;52.052;8.548;2022-07-04T06:33:08;5.03;;;1.85;;
25343;SDS011;13299;52.052;8.548;2022-07-04T06:35:34;3.85;;;1.52;;
25343;SDS011;13299;52.052;8.548;2022-07-04T06:38:19;7.55;;;1.55;;
25343;SDS011;13299;52.052;8.548;2022-07-04T06:40:48;4.25;;;1.38;;
25343;SDS011;13299;52.052;8.548;2022-07-04T06:43:15;3.65;;;1.02;;
25343;SDS011;13299;52.052;8.548;2022-07-04T06:45:41;1.85;;;0.93;;
25343;SDS011;13299;52.052;8.548;2022-07-04T06:48:07;2.33;;;1.13;;
25343;SDS011;13299;52.052;8.548;2022-07-04T06:50:33;2.33;;;1.00;;
25343;SDS011;13299;52.052;8.548;2022-07-04T06:53:01;3.17;;;1.10;;
25343;SDS011;13299;52.052;8.548;2022-07-04T06:55:35;1.48;;;0.90;;
25343;SDS011;13299;52.052;8.548;2022-07-04T06:58:02;2.13;;;1.00;;
25343;SDS011;13299;52.052;8.548;2022-07-04T07:00:28;5.18;;;0.98;;
25343;SDS011;13299;52.052;8.548;2022-07-04T07:02:57;1.60;;;0.80;;
25343;SDS011;13299;52.052;8.548;2022-07-04T07:05:27;4.85;;;1.10;;
25343;SDS011;13299;52.052;8.548;2022-07-04T07:07:53;2.85;;;0.90;;
25343;SDS011;13299;52.052;8.548;2022-07-04T07:10:20;4.53;;;0.90;;
25343;SDS011;13299;52.052;8.548;2022-07-04T07:12:46;1.58;;;0.70;;
25343;SDS011;13299;52.052;8.548;2022-07-04T07:15:12;2.28;;;0.80;;
25343;SDS011;13299;52.052;8.548;2022-07-04T07:17:38;0.98;;;0.50;;
25343;SDS011;13299;52.052;8.548;2022-07-04T07:20:05;2.47;;;0.60;;
25343;SDS011;13299;52.052;8.548;2022-07-04T07:22:31;2.63;;;0.75;;
25343;SDS011;13299;52.052;8.548;2022-07-04T07:24:57;4.38;;;0.90;;
25343;SDS011;13299;52.052;8.548;2022-07-04T07:27:23;6.25;;;0.90;;
25343;SDS011;13299;52.052;8.548;2022-07-04T07:29:48;1.85;;;0.80;;
25343;SDS011;13299;52.052;8.548;2022-07-04T07:32:14;2.55;;;0.88;;
25343;SDS011;13299;52.052;8.548;2022-07-04T07:34:40;3.95;;;0.70;;
25343;SDS011;13299;52.052;8.548;2022-07-04T07:37:06;2.67;;;0.80;;
25343;SDS011;13299;52.052;8.548;2022-07-04T07:39:32;3.30;;;1.05;;
25343;SDS011;13299;52.052;8.548;2022-07-04T07:41:58;1.60;;;0.70;;
25343;SDS011;13299;52.052;8.548;2022-07-04T07:44:24;2.58;;;0.70;;
25343;SDS011;13299;52.052;8.548;2022-07-04T07:46:49;10.00;;;1.20;;
25343;SDS011;13299;52.052;8.548;2022-07-04T07:49:15;3.10;;;0.77;;
25343;SDS011;13299;52.052;8.548;2022-07-04T07:51:41;2.28;;;0.65;;
25343;SDS011;13299;52.052;8.548;2022-07-04T07:54:06;2.35;;;0.88;;
25343;SDS011;13299;52.052;8.548;2022-07-04T07:56:32;2.50;;;0.73;;
25343;SDS011;13299;52.052;8.548;2022-07-04T07:58:58;4.47;;;0.85;;
25343;SDS011;13299;52.052;8.548;2022-07-04T08:01:23;2.15;;;0.95;;
25343;SDS011;13299;52.052;8.548;2022-07-04T08:03:49;2.78;;;0.70;;
25343;SDS011;13299;52.052;8.548;2022-07-04T08:06:33;2.72;;;0.70;;
25343;SDS011;13299;52.052;8.548;2022-07-04T08:08:59;2.00;;;0.90;;
25343;SDS011;13299;52.052;8.548;2022-07-04T08:11:25;1.83;;;0.80;;
25343;SDS011;13299;52.052;8.548;2022-07-04T08:13:51;1.67;;;0.80;;
25343;SDS011;13299;52.052;8.548;2022-07-04T08:16:17;3.80;;;0.88;;
25343;SDS011;13299;52.052;8.548;2022-07-04T08:18:42;2.75;;;0.90;;
25343;SDS011;13299;52.052;8.548;2022-07-04T08:21:08;1.13;;;0.57;;
25343;SDS011;13299;52.052;8.548;2022-07-04T08:23:34;1.13;;;0.70;;
25343;SDS011;13299;52.052;8.548;2022-07-04T08:26:02;1.73;;;0.73;;
25343;SDS011;13299;52.052;8.548;2022-07-04T08:28:28;2.28;;;0.75;;
25343;SDS011;13299;52.052;8.548;2022-07-04T08:30:55;3.88;;;0.70;;
25343;SDS011;13299;52.052;8.548;2022-07-04T08:33:21;3.10;;;0.82;;
25343;SDS011;13299;52.052;8.548;2022-07-04T08:35:47;1.15;;;0.70;;
25343;SDS011;13299;52.052;8.548;2022-07-04T08:38:13;2.17;;;0.75;;
25343;SDS011;13299;52.052;8.548;2022-07-04T08:40:40;1.80;;;0.60;;
25343;SDS011;13299;52.052;8.548;2022-07-04T08:43:06;1.90;;;0.60;;
25343;SDS011;13299;52.052;8.548;2022-07-04T08:45:33;1.25;;;0.50;;
25343;SDS011;13299;52.052;8.548;2022-07-04T08:48:06;5.05;;;0.80;;
25343;SDS011;13299;52.052;8.548;2022-07-04T08:50:37;3.47;;;0.70;;
25343;SDS011;13299;52.052;8.548;2022-07-04T08:53:13;2.70;;;0.60;;
25343;SDS011;13299;52.052;8.548;2022-07-04T08:55:40;2.47;;;1.10;;
25343;SDS011;13299;52.052;8.548;2022-07-04T08:58:26;2.35;;;0.50;;
25343;SDS011;13299;52.052;8.548;2022-07-04T09:01:02;1.20;;;0.50;;
25343;SDS011;13299;52.052;8.548;2022-07-04T09:03:29;1.55;;;0.50;;
25343;SDS011;13299;52.052;8.548;2022-07-04T09:05:56;1.88;;;0.57;;
25343;SDS011;13299;52.052;8.548;2022-07-04T09:08:22;0.90;;;0.50;;
25343;SDS011;13299;52.052;8.548;2022-07-04T09:10:49;1.45;;;0.60;;
25343;SDS011;13299;52.052;8.548;2022-07-04T09:13:16;2.33;;;0.80;;
25343;SDS011;13299;52.052;8.548;2022-07-04T09:15:44;1.83;;;0.70;;
25343;SDS011;13299;52.052;8.548;2022-07-04T09:18:31;5.38;;;0.60;;
25343;SDS011;13299;52.052;8.548;2022-07-04T09:20:59;1.20;;;0.63;;
25343;SDS011;13299;52.052;8.548;2022-07-04T09:23:27;3.55;;;0.50;;
25343;SDS011;13299;52.052;8.548;2022-07-04T09:28:52;2.83;;;0.50;;
25343;SDS011;13299;52.052;8.548;2022-07-04T09:31:22;6.35;;;0.77;;
25343;SDS011;13299;52.052;8.548;2022-07-04T09:33:54;3.33;;;0.47;;
25343;SDS011;13299;52.052;8.548;2022-07-04T09:36:30;1.13;;;0.47;;
25343;SDS011;13299;52.052;8.548;2022-07-04T09:39:18;2.33;;;0.75;;
25343;SDS011;13299;52.052;8.548;2022-07-04T09:41:49;3.33;;;0.80;;
25343;SDS011;13299;52.052;8.548;2022-07-04T09:44:15;1.98;;;0.60;;
25343;SDS011;13299;52.052;8.548;2022-07-04T09:46:41;6.70;;;0.70;;
25343;SDS011;13299;52.052;8.548;2022-07-04T09:49:07;2.67;;;0.60;;
25343;SDS011;13299;52.052;8.548;2022-07-04T09:51:42;0.70;;;0.40;;
25343;SDS011;13299;52.052;8.548;2022-07-04T09:56:52;1.52;;;0.60;;
25343;SDS011;13299;52.052;8.548;2022-07-04T09:59:22;3.22;;;0.75;;
25343;SDS011;13299;52.052;8.548;2022-07-04T10:01:48;3.08;;;0.77;;
25343;SDS011;13299;52.052;8.548;2022-07-04T10:04:15;1.75;;;0.50;;
25343;SDS011;13299;52.052;8.548;2022-07-04T10:06:41;2.88;;;0.60;;
25343;SDS011;13299;52.052;8.548;2022-07-04T10:09:15;1.50;;;0.77;;
25343;SDS011;13299;52.052;8.548;2022-07-04T10:11:42;1.70;;;0.75;;
25343;SDS011;13299;52.052;8.548;2022-07-04T10:14:11;1.25;;;0.40;;
25343;SDS011;13299;52.052;8.548;2022-07-04T10:16:38;0.80;;;0.55;;
25343;SDS011;13299;52.052;8.548;2022-07-04T10:19:05;2.70;;;0.52;;
25343;SDS011;13299;52.052;8.548;2022-07-04T10:21:32;1.10;;;0.55;;
25343;SDS011;13299;52.052;8.548;2022-07-04T10:23:58;1.88;;;0.70;;
25343;SDS011;13299;52.052;8.548;2022-07-04T10:26:24;1.55;;;0.60;;
25343;SDS011;13299;52.052;8.548;2022-07-04T10:28:53;1.25;;;0.50;;
25343;SDS011;13299;52.052;8.548;2022-07-04T10:31:20;1.20;;;0.57;;
25343;SDS011;13299;52.052;8.548;2022-07-04T10:33:48;1.17;;;0.38;;
25343;SDS011;13299;52.052;8.548;2022-07-04T10:36:19;1.15;;;0.50;;
25343;SDS011;13299;52.052;8.548;2022-07-04T10:38:53;1.08;;;0.52;;
25343;SDS011;13299;52.052;8.548;2022-07-04T10:41:20;2.00;;;0.70;;
25343;SDS011;13299;52.052;8.548;2022-07-04T10:51:13;1.95;;;0.50;;
25343;SDS011;13299;52.052;8.548;2022-07-04T10:53:59;1.27;;;0.47;;
25343;SDS011;13299;52.052;8.548;2022-07-04T10:58:53;3.50;;;0.82;;
25343;SDS011;13299;52.052;8.548;2022-07-04T11:01:20;1.40;;;0.60;;
25343;SDS011;13299;52.052;8.548;2022-07-04T11:03:50;1.58;;;0.90;;
25343;SDS011;13299;52.052;8.548;2022-07-04T11:14:36;3.03;;;0.68;;
25343;SDS011;13299;52.052;8.548;2022-07-04T11:17:05;2.10;;;0.50;;
25343;SDS011;13299;52.052;8.548;2022-07-04T11:19:36;3.03;;;0.43;;
25343;SDS011;13299;52.052;8.548;2022-07-04T11:22:02;4.05;;;1.52;;
25343;SDS011;13299;52.052;8.548;2022-07-04T11:24:30;1.67;;;0.68;;
25343;SDS011;13299;52.052;8.548;2022-07-04T11:26:56;3.72;;;0.60;;
25343;SDS011;13299;52.052;8.548;2022-07-04T11:29:22;1.92;;;0.70;;
25343;SDS011;13299;52.052;8.548;2022-07-04T11:31:49;5.35;;;0.77;;
25343;SDS011;13299;52.052;8.548;2022-07-04T11:34:16;1.65;;;0.90;;
25343;SDS011;13299;52.052;8.548;2022-07-04T11:36:43;3.20;;;0.63;;
25343;SDS011;13299;52.052;8.548;2022-07-04T11:39:12;2.05;;;0.60;;
25343;SDS011;13299;52.052;8.548;2022-07-04T11:41:44;4.38;;;0.88;;
25343;SDS011;13299;52.052;8.548;2022-07-04T11:44:34;3.88;;;0.63;;
25343;SDS011;13299;52.052;8.548;2022-07-04T11:47:40;1.05;;;0.50;;
25343;SDS011;13299;52.052;8.548;2022-07-04T11:50:10;1.73;;;0.60;;
25343;SDS011;13299;52.052;8.548;2022-07-04T11:52:48;0.77;;;0.50;;
25343;SDS011;13299;52.052;8.548;2022-07-04T11:55:18;4.25;;;0.95;;
25343;SDS011;13299;52.052;8.548;2022-07-04T11:57:47;3.00;;;0.60;;
25343;SDS011;13299;52.052;8.548;2022-07-04T12:00:19;2.92;;;0.60;;
25343;SDS011;13299;52.052;8.548;2022-07-04T12:02:47;2.17;;;0.50;;
25343;SDS011;13299;52.052;8.548;2022-07-04T12:05:13;5.57;;;0.65;;
25343;SDS011;13299;52.052;8.548;2022-07-04T12:07:42;1.90;;;0.50;;
25343;SDS011;13299;52.052;8.548;2022-07-04T12:10:18;2.30;;;0.95;;
25343;SDS011;13299;52.052;8.548;2022-07-04T12:12:52;3.58;;;0.60;;
25343;SDS011;13299;52.052;8.548;2022-07-04T12:15:19;0.68;;;0.40;;
25343;SDS011;13299;52.052;8.548;2022-07-04T12:17:49;1.58;;;0.80;;
25343;SDS011;13299;52.052;8.548;2022-07-04T12:20:19;1.20;;;0.50;;
25343;SDS011;13299;52.052;8.548;2022-07-04T12:22:51;1.42;;;0.50;;
25343;SDS011;13299;52.052;8.548;2022-07-04T12:25:24;1.95;;;0.40;;
25343;SDS011;13299;52.052;8.548;2022-07-04T12:28:09;2.45;;;0.50;;
25343;SDS011;13299;52.052;8.548;2022-07-04T12:30:47;2.72;;;0.43;;
25343;SDS011;13299;52.052;8.548;2022-07-04T12:33:17;4.07;;;0.75;;
25343;SDS011;13299;52.052;8.548;2022-07-04T12:35:51;2.67;;;0.60;;
25343;SDS011;13299;52.052;8.548;2022-07-04T12:41:13;1.77;;;0.52;;
25343;SDS011;13299;52.052;8.548;2022-07-04T12:46:07;1.23;;;0.50;;
25343;SDS011;13299;52.052;8.548;2022-07-04T12:48:38;4.70;;;0.70;;
25343;SDS011;13299;52.052;8.548;2022-07-04T12:51:12;2.50;;;0.60;;
25343;SDS011;13299;52.052;8.548;2022-07-04T12:53:55;1.90;;;0.63;;
25343;SDS011;13299;52.052;8.548;2022-07-04T12:58:54;1.63;;;0.50;;
25343;SDS011;13299;52.052;8.548;2022-07-04T13:01:20;2.67;;;0.52;;
25343;SDS011;13299;52.052;8.548;2022-07-04T13:03:46;2.42;;;0.60;;
25343;SDS011;13299;52.052;8.548;2022-07-04T13:06:11;3.33;;;0.90;;
25343;SDS011;13299;52.052;8.548;2022-07-04T13:08:37;1.38;;;0.50;;
25343;SDS011;13299;52.052;8.548;2022-07-04T13:11:03;2.72;;;0.50;;
25343;SDS011;13299;52.052;8.548;2022-07-04T13:13:47;2.28;;;0.50;;
25343;SDS011;13299;52.052;8.548;2022-07-04T13:16:13;6.25;;;0.60;;
25343;SDS011;13299;52.052;8.548;2022-07-04T13:18:39;1.90;;;0.75;;
25343;SDS011;13299;52.052;8.548;2022-07-04T13:21:04;1.98;;;0.60;;
25343;SDS011;13299;52.052;8.548;2022-07-04T13:23:30;2.97;;;0.60;;
25343;SDS011;13299;52.052;8.548;2022-07-04T13:25:56;2.38;;;0.70;;
25343;SDS011;13299;52.052;8.548;2022-07-04T13:28:21;4.72;;;0.80;;
25343;SDS011;13299;52.052;8.548;2022-07-04T13:30:47;1.23;;;0.47;;
25343;SDS011;13299;52.052;8.548;2022-07-04T13:33:12;1.42;;;0.65;;
25343;SDS011;13299;52.052;8.548;2022-07-04T13:35:39;1.85;;;0.50;;
25343;SDS011;13299;52.052;8.548;2022-07-04T13:38:05;2.28;;;0.60;;
25343;SDS011;13299;52.052;8.548;2022-07-04T13:40:30;3.30;;;0.73;;
25343;SDS011;13299;52.052;8.548;2022-07-04T13:42:56;1.77;;;0.57;;
25343;SDS011;13299;52.052;8.548;2022-07-04T13:45:21;2.10;;;0.50;;
25343;SDS011;13299;52.052;8.548;2022-07-04T13:47:47;2.85;;;0.65;;
25343;SDS011;13299;52.052;8.548;2022-07-04T13:50:13;5.22;;;0.65;;
25343;SDS011;13299;52.052;8.548;2022-07-04T13:52:38;2.75;;;0.70;;
25343;SDS011;13299;52.052;8.548;2022-07-04T13:55:04;1.52;;;0.47;;
25343;SDS011;13299;52.052;8.548;2022-07-04T13:57:30;3.03;;;0.77;;
25343;SDS011;13299;52.052;8.548;2022-07-04T13:59:56;3.60;;;0.73;;
25343;SDS011;13299;52.052;8.548;2022-07-04T14:02:22;1.23;;;0.60;;
25343;SDS011;13299;52.052;8.548;2022-07-04T14:04:48;2.67;;;0.40;;
25343;SDS011;13299;52.052;8.548;2022-07-04T14:07:13;1.50;;;0.50;;
25343;SDS011;13299;52.052;8.548;2022-07-04T14:09:39;0.65;;;0.30;;
25343;SDS011;13299;52.052;8.548;2022-07-04T14:12:05;0.60;;;0.30;;
25343;SDS011;13299;52.052;8.548;2022-07-04T14:14:31;0.80;;;0.40;;
25343;SDS011;13299;52.052;8.548;2022-07-04T14:16:56;1.92;;;0.77;;
25343;SDS011;13299;52.052;8.548;2022-07-04T14:19:22;2.03;;;0.70;;
25343;SDS011;13299;52.052;8.548;2022-07-04T14:21:48;3.45;;;0.60;;
25343;SDS011;13299;52.052;8.548;2022-07-04T14:24:14;3.80;;;0.63;;
25343;SDS011;13299;52.052;8.548;2022-07-04T14:26:40;1.77;;;0.45;;
25343;SDS011;13299;52.052;8.548;2022-07-04T14:29:07;2.25;;;0.82;;
25343;SDS011;13299;52.052;8.548;2022-07-04T14:31:33;2.47;;;0.57;;
25343;SDS011;13299;52.052;8.548;2022-07-04T14:33:58;2.20;;;0.50;;
25343;SDS011;13299;52.052;8.548;2022-07-04T14:36:24;1.52;;;0.52;;
25343;SDS011;13299;52.052;8.548;2022-07-04T14:38:49;1.90;;;0.80;;
25343;SDS011;13299;52.052;8.548;2022-07-04T14:41:15;1.88;;;0.70;;
25343;SDS011;13299;52.052;8.548;2022-07-04T14:43:41;3.17;;;1.20;;
25343;SDS011;13299;52.052;8.548;2022-07-04T14:46:08;2.38;;;0.60;;
25343;SDS011;13299;52.052;8.548;2022-07-04T14:48:35;1.70;;;0.73;;
25343;SDS011;13299;52.052;8.548;2022-07-04T14:51:02;4.60;;;0.95;;
25343;SDS011;13299;52.052;8.548;2022-07-04T14:53:28;5.32;;;1.20;;
25343;SDS011;13299;52.052;8.548;2022-07-04T14:55:54;2.30;;;0.60;;
25343;SDS011;13299;52.052;8.548;2022-07-04T14:58:19;2.33;;;0.60;;
25343;SDS011;13299;52.052;8.548;2022-07-04T15:00:45;1.98;;;0.50;;
25343;SDS011;13299;52.052;8.548;2022-07-04T15:03:11;0.82;;;0.50;;
25343;SDS011;13299;52.052;8.548;2022-07-04T15:05:37;2.13;;;0.50;;
25343;SDS011;13299;52.052;8.548;2022-07-04T15:08:06;1.98;;;0.90;;
25343;SDS011;13299;52.052;8.548;2022-07-04T15:10:31;1.77;;;0.70;;
25343;SDS011;13299;52.052;8.548;2022-07-04T15:12:57;1.52;;;0.60;;
25343;SDS011;13299;52.052;8.548;2022-07-04T15:15:23;1.58;;;0.73;;
25343;SDS011;13299;52.052;8.548;2022-07-04T15:17:49;2.55;;;0.50;;
25343;SDS011;13299;52.052;8.548;2022-07-04T15:20:15;3.00;;;0.93;;